Skip Navigation Links Skip Navigation Links

Current Weather

General Mitchell International, Milwaukee

For information only: do not use for flight planning or navigation.
Latest weather
Observation time Wednesday, October 16, 2019 11:52 PM CDT
Local time Thursday, October 17, 2019 12:55 AM CDT
Flight conditions Visual Meteorological Conditions
Winds
Wind direction Northwest (310°)
Wind speed 7 mph
Visibility 10 mi.
Sky condition
Ceiling unlimited
Cloud layer scattered clouds 25,000 ft.
Temperature 44°F
Dewpoint 34°F
Altimeter 30.00 in.Hg
Derived measurements
Relative humidity 67%
Wind chill 40°F
Density altitude -267 ft.
Sea-level pressure 30.01 in.Hg
Remarks
Automated weather observing station with precipitation discriminator.
METAR KMKE 170452Z 31006KT 10SM SCT250 07/01 A3000 RMK AO2 SLP162 T00670011

Settings

Location code

InnerDrive.Weather 4.0.6770.0 Release CLR 4.0.30319.42000
Copyright ©2018 Inner Drive Technology. All rights reserved. Portions Copyright ©1986-2018 David Braverman.

Find weather

Site navigation


Skip Navigation Links

Place info

Page info

PayPal - The safer, easier way to pay online!

Return home.

Copyright ©2019 Inner Drive Technology. Purveyors of fine, hand-crafted computer software. Page printed 2019-10-17T05:55:06 UTC.